Time;durP1;ratioP1;P1;durP2;ratioP2;P2;SDS_P1;SDS_P2;PMS_P1;PMS_P2;Temp;Humidity;BMP_temperature;BMP_pressure;BME280_temperature;BME280_humidity;BME280_pressure;Samples;Min_cycle;Max_cycle;Signal;HPM_P1;HPM_P2
2022/03/13 00:00:11;;;;;;;;;;;17.20;51.00;;;;;;5003608;28;19972;-65
2022/03/13 00:02:37;;;;;;;;;;;17.20;51.10;;;;;;5005690;28;19922;-66
2022/03/13 00:05:03;;;;;;;;;;;17.20;51.00;;;;;;5003512;28;20342;-66
2022/03/13 00:07:29;;;;;;;;;;;17.10;51.20;;;;;;5006757;28;19921;-66
2022/03/13 00:09:55;;;;;;;;;;;17.10;51.10;;;;;;5005064;28;19956;-65
2022/03/13 00:12:26;;;;;;;;;;;17.20;51.00;;;;;;5003289;28;19952;-65
2022/03/13 00:14:52;;;;;;;;;;;17.10;51.10;;;;;;5007751;28;20063;-65
2022/03/13 00:17:19;;;;;;;;;;;17.10;50.90;;;;;;5009066;28;19914;-66
2022/03/13 00:19:44;;;;;;;;;;;17.10;51.00;;;;;;5009546;28;20029;-67
2022/03/13 00:22:10;;;;;;;;;;;17.10;51.00;;;;;;5010231;28;19921;-65
2022/03/13 00:24:35;;;;;;;;;;;17.00;51.00;;;;;;5008405;28;20297;-66
2022/03/13 00:27:02;;;;;;;;;;;17.10;50.90;;;;;;5007477;28;19921;-66
2022/03/13 00:29:27;;;;;;;;;;;17.10;50.80;;;;;;5023838;28;19914;-65
2022/03/13 00:31:53;;;;;;;;;;;17.20;50.70;;;;;;5016386;28;19913;-65
2022/03/13 00:34:18;;;;;;;;;;;17.10;50.70;;;;;;5008936;28;19913;-65
2022/03/13 00:36:44;;;;;;;;;;;17.10;50.80;;;;;;5011083;28;19921;-65
2022/03/13 00:39:09;;;;;;;;;;;17.10;50.70;;;;;;5008992;28;19929;-65
2022/03/13 00:41:35;;;;;;;;;;;17.10;50.70;;;;;;5008865;28;19914;-65
2022/03/13 00:44:01;;;;;;;;;;;17.10;50.60;;;;;;5009593;28;19928;-66
2022/03/13 00:46:26;;;;;;;;;;;17.10;50.60;;;;;;5010180;28;20012;-65
2022/03/13 00:48:51;;;;;;;;;;;17.20;50.50;;;;;;5010157;28;20029;-65
2022/03/13 00:51:17;;;;;;;;;;;17.10;50.40;;;;;;5008972;28;19932;-66
2022/03/13 00:53:43;;;;;;;;;;;17.10;50.60;;;;;;5008753;28;19914;-66
2022/03/13 00:56:10;;;;;;;;;;;17.10;50.50;;;;;;5007540;28;19949;-66
2022/03/13 00:58:37;;;;;;;;;;;17.10;50.30;;;;;;5007323;28;20331;-66
2022/03/13 01:01:03;;;;;;;;;;;17.30;50.20;;;;;;5009308;28;19913;-65
2022/03/13 01:03:35;;;;;;;;;;;17.20;50.10;;;;;;5009504;28;19914;-66
2022/03/13 01:06:00;;;;;;;;;;;17.30;49.90;;;;;;5010102;28;19918;-65
2022/03/13 01:08:26;;;;;;;;;;;17.20;49.80;;;;;;5010883;28;19921;-66
2022/03/13 01:10:52;;;;;;;;;;;17.20;49.70;;;;;;5009043;28;19984;-65
2022/03/13 01:13:18;;;;;;;;;;;17.20;49.70;;;;;;5008454;28;19917;-66
2022/03/13 01:15:46;;;;;;;;;;;17.20;49.60;;;;;;5008851;28;19918;-65
2022/03/13 01:18:11;;;;;;;;;;;17.30;49.60;;;;;;5010593;28;19940;-65
2022/03/13 01:20:37;;;;;;;;;;;17.20;49.60;;;;;;4991648;28;19913;-65
2022/03/13 01:23:02;;;;;;;;;;;17.20;49.60;;;;;;5007101;28;19914;-65
2022/03/13 01:25:28;;;;;;;;;;;17.30;49.60;;;;;;5006066;28;19922;-66
2022/03/13 01:27:53;;;;;;;;;;;17.20;49.50;;;;;;5007249;28;20012;-67
2022/03/13 01:30:19;;;;;;;;;;;17.20;49.50;;;;;;5006728;28;19929;-66
2022/03/13 01:32:47;;;;;;;;;;;17.20;49.60;;;;;;5012761;28;19920;-66
2022/03/13 01:35:18;;;;;;;;;;;17.20;49.60;;;;;;5006986;28;20040;-66
2022/03/13 01:37:43;;;;;;;;;;;17.20;49.60;;;;;;5009847;28;19917;-67
2022/03/13 01:40:09;;;;;;;;;;;17.20;49.70;;;;;;4990306;28;19913;-66
2022/03/13 01:42:35;;;;;;;;;;;17.10;49.60;;;;;;5007055;28;20004;-66
2022/03/13 01:45:00;;;;;;;;;;;17.10;49.60;;;;;;5007996;28;19986;-66
2022/03/13 01:47:26;;;;;;;;;;;17.20;49.50;;;;;;5010059;28;19914;-66
2022/03/13 01:49:51;;;;;;;;;;;17.20;49.50;;;;;;5006044;28;19925;-66
2022/03/13 01:52:20;;;;;;;;;;;17.20;49.50;;;;;;5005865;28;20542;-66
2022/03/13 01:54:47;;;;;;;;;;;17.20;49.50;;;;;;5008944;28;19914;-67
2022/03/13 01:57:16;;;;;;;;;;;17.20;49.50;;;;;;5008421;28;20488;-66
2022/03/13 01:59:42;;;;;;;;;;;17.10;49.50;;;;;;5007811;28;19956;-66
2022/03/13 02:02:07;;;;;;;;;;;17.10;49.40;;;;;;5008197;28;19917;-66
2022/03/13 02:04:33;;;;;;;;;;;17.10;49.40;;;;;;5008819;28;19983;-66
2022/03/13 02:06:58;;;;;;;;;;;17.10;49.30;;;;;;5006856;28;19921;-66
2022/03/13 02:09:24;;;;;;;;;;;17.20;49.40;;;;;;4994928;28;19964;-66
2022/03/13 02:11:51;;;;;;;;;;;17.10;49.40;;;;;;5007808;28;19920;-65
2022/03/13 02:14:17;;;;;;;;;;;17.10;49.60;;;;;;5011861;28;19913;-67
2022/03/13 02:16:43;;;;;;;;;;;16.80;49.70;;;;;;5008866;28;19914;-66
2022/03/13 02:19:08;;;;;;;;;;;16.70;49.90;;;;;;5016063;28;19926;-65
2022/03/13 02:21:37;;;;;;;;;;;16.80;49.60;;;;;;5008222;28;19914;-66
2022/03/13 02:24:03;;;;;;;;;;;16.70;49.60;;;;;;5008830;28;20567;-66
2022/03/13 02:26:28;;;;;;;;;;;16.80;49.40;;;;;;5007511;28;19921;-66
2022/03/13 02:28:54;;;;;;;;;;;16.80;49.20;;;;;;5006796;28;19941;-66
2022/03/13 02:31:24;;;;;;;;;;;16.90;49.00;;;;;;5007384;28;19914;-66
2022/03/13 02:33:51;;;;;;;;;;;16.80;48.90;;;;;;5016714;28;20211;-66
2022/03/13 02:36:29;;;;;;;;;;;16.90;48.90;;;;;;5009015;28;19971;-67
2022/03/13 02:38:54;;;;;;;;;;;16.80;48.80;;;;;;5013868;28;19928;-66
2022/03/13 02:41:20;;;;;;;;;;;16.80;48.90;;;;;;5009478;28;19914;-66
2022/03/13 02:43:45;;;;;;;;;;;16.80;48.80;;;;;;5009289;28;19913;-67
2022/03/13 02:46:16;;;;;;;;;;;16.80;48.80;;;;;;5007819;28;19921;-65
2022/03/13 02:48:42;;;;;;;;;;;16.70;49.50;;;;;;5005496;28;21238;-66
2022/03/13 02:51:07;;;;;;;;;;;16.80;49.70;;;;;;5006953;28;19925;-66
2022/03/13 02:53:33;;;;;;;;;;;16.80;49.60;;;;;;5011532;28;19921;-65
2022/03/13 02:55:58;;;;;;;;;;;17.00;49.30;;;;;;5010821;28;20316;-66
2022/03/13 02:58:24;;;;;;;;;;;17.10;48.80;;;;;;5007757;28;19914;-66
2022/03/13 03:00:49;;;;;;;;;;;17.10;48.90;;;;;;5007743;28;19914;-66
2022/03/13 03:03:15;;;;;;;;;;;17.10;49.00;;;;;;5007696;28;19922;-65
2022/03/13 03:05:41;;;;;;;;;;;17.20;49.00;;;;;;5006612;28;19953;-66
2022/03/13 03:08:07;;;;;;;;;;;17.20;48.90;;;;;;5006119;28;19918;-66
2022/03/13 03:10:33;;;;;;;;;;;17.20;48.90;;;;;;5007335;28;19952;-66
2022/03/13 03:12:59;;;;;;;;;;;17.30;49.10;;;;;;5006285;28;20265;-66
2022/03/13 03:15:25;;;;;;;;;;;17.30;49.10;;;;;;5010518;28;19983;-66
2022/03/13 03:17:50;;;;;;;;;;;17.30;49.00;;;;;;5007329;28;19913;-66
2022/03/13 03:20:15;;;;;;;;;;;17.30;49.00;;;;;;5008115;28;19952;-66
2022/03/13 03:22:41;;;;;;;;;;;17.30;49.10;;;;;;5006886;28;19917;-66
2022/03/13 03:25:06;;;;;;;;;;;17.30;49.00;;;;;;5006058;28;19917;-66
2022/03/13 03:27:32;;;;;;;;;;;17.40;48.90;;;;;;5006659;28;19929;-66
2022/03/13 03:29:58;;;;;;;;;;;17.40;48.80;;;;;;5008692;28;19914;-66
2022/03/13 03:32:24;;;;;;;;;;;17.40;49.40;;;;;;5006733;28;19981;-66
2022/03/13 03:34:49;;;;;;;;;;;17.40;48.60;;;;;;5006650;28;19914;-66
2022/03/13 03:37:14;;;;;;;;;;;17.40;48.80;;;;;;5008113;28;19913;-66
2022/03/13 03:39:40;;;;;;;;;;;17.40;48.80;;;;;;5011079;28;19936;-66
2022/03/13 03:42:06;;;;;;;;;;;17.40;48.70;;;;;;5006161;28;19922;-65
2022/03/13 03:44:31;;;;;;;;;;;17.40;48.60;;;;;;5005847;28;19921;-66
2022/03/13 03:46:56;;;;;;;;;;;17.40;48.60;;;;;;5007217;28;19914;-66
2022/03/13 03:49:22;;;;;;;;;;;17.40;48.50;;;;;;5011712;28;20564;-65
2022/03/13 03:51:48;;;;;;;;;;;17.50;48.50;;;;;;5009793;28;19918;-66
2022/03/13 03:54:14;;;;;;;;;;;17.50;48.50;;;;;;5010853;28;20340;-66
2022/03/13 03:56:40;;;;;;;;;;;17.50;48.40;;;;;;5008123;28;20021;-66
2022/03/13 03:59:05;;;;;;;;;;;17.50;48.30;;;;;;5009935;28;19921;-66
2022/03/13 04:01:37;;;;;;;;;;;17.50;48.30;;;;;;5007159;28;19924;-65
2022/03/13 04:04:04;;;;;;;;;;;17.50;48.30;;;;;;5004336;28;19939;-66
2022/03/13 04:06:29;;;;;;;;;;;17.40;48.30;;;;;;5008156;28;19948;-65
2022/03/13 04:08:55;;;;;;;;;;;17.50;48.30;;;;;;5009449;28;19936;-63
2022/03/13 04:11:20;;;;;;;;;;;17.50;48.30;;;;;;5009579;28;19913;-67
2022/03/13 04:13:47;;;;;;;;;;;17.50;48.80;;;;;;5009078;28;19914;-66
2022/03/13 04:16:12;;;;;;;;;;;17.50;48.20;;;;;;5008632;28;19925;-66
2022/03/13 04:18:38;;;;;;;;;;;17.50;48.10;;;;;;5008337;28;19913;-66
2022/03/13 04:21:04;;;;;;;;;;;17.50;48.00;;;;;;5012918;28;19914;-65
2022/03/13 04:23:30;;;;;;;;;;;17.40;48.00;;;;;;5010640;28;20032;-66
2022/03/13 04:25:55;;;;;;;;;;;17.40;48.10;;;;;;5013856;28;19917;-66
2022/03/13 04:28:22;;;;;;;;;;;17.40;48.10;;;;;;5007328;28;19921;-65
2022/03/13 04:30:52;;;;;;;;;;;17.40;48.00;;;;;;5007457;28;19921;-65
2022/03/13 04:33:17;;;;;;;;;;;17.50;47.90;;;;;;5008040;28;20518;-66
2022/03/13 04:35:43;;;;;;;;;;;17.50;47.80;;;;;;5010071;28;20101;-66
2022/03/13 04:38:09;;;;;;;;;;;17.50;47.90;;;;;;5007174;28;20303;-66
2022/03/13 04:40:34;;;;;;;;;;;17.40;47.90;;;;;;5010892;28;19924;-66
2022/03/13 04:43:01;;;;;;;;;;;17.40;47.90;;;;;;5006854;28;20001;-66
2022/03/13 04:45:26;;;;;;;;;;;17.30;47.90;;;;;;5008483;28;19940;-66
2022/03/13 04:47:52;;;;;;;;;;;17.40;47.90;;;;;;4991289;28;20376;-66
2022/03/13 04:50:17;;;;;;;;;;;17.40;47.80;;;;;;5006873;28;19928;-66
2022/03/13 04:52:43;;;;;;;;;;;17.40;47.90;;;;;;5007698;28;20372;-61
2022/03/13 04:55:08;;;;;;;;;;;17.40;47.70;;;;;;5008569;28;19917;-66
2022/03/13 04:57:34;;;;;;;;;;;17.40;47.80;;;;;;5001078;28;19945;-66
2022/03/13 04:59:59;;;;;;;;;;;17.40;47.70;;;;;;5007095;28;19918;-65
2022/03/13 05:02:25;;;;;;;;;;;17.40;47.80;;;;;;5004949;28;19913;-62
2022/03/13 05:04:50;;;;;;;;;;;17.40;47.80;;;;;;5007047;28;19925;-64
2022/03/13 05:07:17;;;;;;;;;;;17.40;47.60;;;;;;5009180;28;19927;-65
2022/03/13 05:09:43;;;;;;;;;;;17.40;47.60;;;;;;5006471;28;19914;-64
2022/03/13 05:12:10;;;;;;;;;;;17.30;47.70;;;;;;5009063;28;20335;-64
2022/03/13 05:14:36;;;;;;;;;;;17.40;47.60;;;;;;5006504;28;19917;-64
2022/03/13 05:17:01;;;;;;;;;;;17.30;47.70;;;;;;5006874;28;19924;-63
2022/03/13 05:19:27;;;;;;;;;;;17.30;47.60;;;;;;5005299;28;20427;-65
2022/03/13 05:21:52;;;;;;;;;;;17.30;47.60;;;;;;5000293;28;19913;-63
2022/03/13 05:24:18;;;;;;;;;;;17.40;47.70;;;;;;5006816;28;20292;-65
2022/03/13 05:26:45;;;;;;;;;;;17.40;47.70;;;;;;5007201;28;19913;-64
2022/03/13 05:29:11;;;;;;;;;;;17.30;47.60;;;;;;5007303;28;19924;-65
2022/03/13 05:31:36;;;;;;;;;;;17.30;47.80;;;;;;5007208;28;19914;-64
2022/03/13 05:34:01;;;;;;;;;;;17.20;47.70;;;;;;5005844;28;19918;-63
2022/03/13 05:36:27;;;;;;;;;;;17.20;47.80;;;;;;5006479;28;20464;-65
2022/03/13 05:38:52;;;;;;;;;;;17.30;47.70;;;;;;5006244;28;19921;-63
2022/03/13 05:41:21;;;;;;;;;;;17.20;47.80;;;;;;5008186;28;19918;-65
2022/03/13 05:43:49;;;;;;;;;;;17.30;47.70;;;;;;5011437;28;19914;-65
2022/03/13 05:46:14;;;;;;;;;;;17.30;47.70;;;;;;5007518;28;19922;-63
2022/03/13 05:48:40;;;;;;;;;;;17.30;47.80;;;;;;5010745;28;19971;-62
2022/03/13 05:51:05;;;;;;;;;;;17.30;47.80;;;;;;5004437;28;19921;-63
2022/03/13 05:53:31;;;;;;;;;;;17.30;47.80;;;;;;5011233;28;19925;-65
2022/03/13 05:55:56;;;;;;;;;;;17.30;47.90;;;;;;5004794;28;19975;-64
2022/03/13 05:58:22;;;;;;;;;;;17.30;47.90;;;;;;5005671;28;19914;-66
2022/03/13 06:00:54;;;;;;;;;;;17.30;48.00;;;;;;5006068;28;19926;-66
2022/03/13 06:03:20;;;;;;;;;;;17.30;47.80;;;;;;5007382;28;20004;-64
2022/03/13 06:05:46;;;;;;;;;;;17.30;47.80;;;;;;5006066;28;19928;-64
2022/03/13 06:08:11;;;;;;;;;;;17.30;47.90;;;;;;5005756;28;19918;-64
2022/03/13 06:10:37;;;;;;;;;;;17.30;47.90;;;;;;5004938;28;19921;-64
2022/03/13 06:13:02;;;;;;;;;;;17.30;48.00;;;;;;5006908;28;19967;-64
2022/03/13 06:15:29;;;;;;;;;;;17.30;47.80;;;;;;5005329;28;19913;-64
2022/03/13 06:17:57;;;;;;;;;;;17.30;47.90;;;;;;5006875;28;19914;-63
2022/03/13 06:20:22;;;;;;;;;;;17.30;47.90;;;;;;5006350;28;20359;-65
2022/03/13 06:22:48;;;;;;;;;;;17.20;48.00;;;;;;5006469;28;19914;-63
2022/03/13 06:25:13;;;;;;;;;;;17.30;48.00;;;;;;5006408;28;20167;-65
2022/03/13 06:27:39;;;;;;;;;;;17.30;48.00;;;;;;5005514;28;19921;-65
2022/03/13 06:30:12;;;;;;;;;;;17.30;48.10;;;;;;5005065;28;19949;-65
2022/03/13 06:32:37;;;;;;;;;;;17.30;48.00;;;;;;5005920;28;19932;-64
2022/03/13 06:35:03;;;;;;;;;;;17.30;48.10;;;;;;5006110;28;19921;-64
2022/03/13 06:37:29;;;;;;;;;;;17.30;47.90;;;;;;5009973;28;20600;-64
2022/03/13 06:39:54;;;;;;;;;;;17.40;47.90;;;;;;5006550;28;20427;-63
2022/03/13 06:42:20;;;;;;;;;;;17.40;48.00;;;;;;5006577;28;19959;-64
2022/03/13 06:44:45;;;;;;;;;;;17.40;48.00;;;;;;5004969;28;19918;-65
2022/03/13 06:47:11;;;;;;;;;;;17.50;48.10;;;;;;5004929;28;19944;-61
2022/03/13 06:49:36;;;;;;;;;;;17.60;48.70;;;;;;5006654;28;20300;-64
2022/03/13 06:52:02;;;;;;;;;;;17.70;48.00;;;;;;5005430;28;19927;-63
2022/03/13 06:54:27;;;;;;;;;;;17.80;47.80;;;;;;5005062;28;20426;-65
2022/03/13 06:56:53;;;;;;;;;;;17.90;47.60;;;;;;5005458;28;19914;-64
2022/03/13 06:59:18;;;;;;;;;;;17.90;47.60;;;;;;5007435;28;20519;-64
2022/03/13 07:01:44;;;;;;;;;;;17.90;47.50;;;;;;5006889;28;20406;-64
2022/03/13 07:04:11;;;;;;;;;;;17.90;47.50;;;;;;5007994;28;19980;-66
2022/03/13 07:06:37;;;;;;;;;;;18.00;47.60;;;;;;5005389;28;19914;-65
2022/03/13 07:09:02;;;;;;;;;;;18.00;47.50;;;;;;5004508;28;19920;-63
2022/03/13 07:11:28;;;;;;;;;;;18.00;47.40;;;;;;5006360;28;19920;-64
2022/03/13 07:13:53;;;;;;;;;;;18.20;47.40;;;;;;5007392;28;19964;-63
2022/03/13 07:16:19;;;;;;;;;;;18.10;47.30;;;;;;5006781;28;20677;-64
2022/03/13 07:18:44;;;;;;;;;;;18.10;47.20;;;;;;5010977;28;19918;-65
2022/03/13 07:21:10;;;;;;;;;;;18.10;47.20;;;;;;5007565;28;20046;-66
2022/03/13 07:23:36;;;;;;;;;;;18.10;47.10;;;;;;5004815;28;19917;-65
2022/03/13 07:26:01;;;;;;;;;;;18.10;47.00;;;;;;5009197;28;19925;-65
2022/03/13 07:28:27;;;;;;;;;;;18.10;47.00;;;;;;5010375;28;19937;-64
2022/03/13 07:30:52;;;;;;;;;;;18.10;47.20;;;;;;5009641;28;19920;-65
2022/03/13 07:33:18;;;;;;;;;;;18.10;47.10;;;;;;5009230;28;19918;-66
2022/03/13 07:35:44;;;;;;;;;;;18.10;47.00;;;;;;5009890;28;20331;-65
2022/03/13 07:38:09;;;;;;;;;;;18.10;46.80;;;;;;5009246;28;19921;-66
2022/03/13 07:40:35;;;;;;;;;;;18.10;46.80;;;;;;5007693;28;19913;-66
2022/03/13 07:43:00;;;;;;;;;;;18.10;46.60;;;;;;5005188;28;19914;-65
2022/03/13 07:45:26;;;;;;;;;;;18.20;46.80;;;;;;5004944;28;20396;-65
2022/03/13 07:47:54;;;;;;;;;;;18.20;47.20;;;;;;5004076;28;19921;-65
2022/03/13 07:50:20;;;;;;;;;;;18.20;47.40;;;;;;5008688;28;20477;-65
2022/03/13 07:52:46;;;;;;;;;;;18.10;47.40;;;;;;5005017;28;20006;-64
2022/03/13 07:55:14;;;;;;;;;;;18.20;47.40;;;;;;5008509;28;20446;-64
2022/03/13 07:57:39;;;;;;;;;;;18.20;47.40;;;;;;5004522;28;19929;-65
2022/03/13 08:00:05;;;;;;;;;;;18.20;47.50;;;;;;5006188;28;20619;-66
2022/03/13 08:02:32;;;;;;;;;;;18.20;47.60;;;;;;5006779;28;20023;-66
2022/03/13 08:04:57;;;;;;;;;;;18.10;47.80;;;;;;5004415;28;19917;-66
2022/03/13 08:07:23;;;;;;;;;;;18.10;48.00;;;;;;5003572;28;19920;-65
2022/03/13 08:09:48;;;;;;;;;;;18.00;47.90;;;;;;5003231;28;19917;-66
2022/03/13 08:12:14;;;;;;;;;;;18.10;47.90;;;;;;5005694;28;19913;-66
2022/03/13 08:14:39;;;;;;;;;;;18.00;47.80;;;;;;5008587;28;20475;-66
2022/03/13 08:17:05;;;;;;;;;;;18.00;47.80;;;;;;5005119;28;19968;-66
2022/03/13 08:19:30;;;;;;;;;;;18.00;47.80;;;;;;5004900;28;19918;-66
2022/03/13 08:21:55;;;;;;;;;;;18.00;47.80;;;;;;5003831;28;19914;-67
2022/03/13 08:24:21;;;;;;;;;;;18.00;47.80;;;;;;5002401;28;19913;-66
2022/03/13 08:26:46;;;;;;;;;;;18.00;47.80;;;;;;5004883;28;20005;-67
2022/03/13 08:29:12;;;;;;;;;;;18.10;47.80;;;;;;5003436;28;20474;-67
2022/03/13 08:31:37;;;;;;;;;;;18.10;47.70;;;;;;5003657;28;19914;-67
2022/03/13 08:34:07;;;;;;;;;;;18.10;47.70;;;;;;5004692;28;20037;-66
2022/03/13 08:36:36;;;;;;;;;;;18.10;47.70;;;;;;5007409;28;19920;-66
2022/03/13 08:39:02;;;;;;;;;;;18.10;47.70;;;;;;5006743;28;20028;-67
2022/03/13 08:41:27;;;;;;;;;;;18.10;47.70;;;;;;5007999;28;19917;-65
2022/03/13 08:43:53;;;;;;;;;;;18.10;47.70;;;;;;5008935;28;19968;-66
2022/03/13 08:46:18;;;;;;;;;;;18.10;47.70;;;;;;5008692;28;19917;-66
2022/03/13 08:48:43;;;;;;;;;;;18.10;47.80;;;;;;5008517;28;20618;-66
2022/03/13 08:51:11;;;;;;;;;;;18.10;47.80;;;;;;4989520;28;19928;-66
2022/03/13 08:53:37;;;;;;;;;;;18.10;47.70;;;;;;5008335;28;19975;-66
2022/03/13 08:56:02;;;;;;;;;;;18.10;47.70;;;;;;5007254;28;19944;-66
2022/03/13 08:58:28;;;;;;;;;;;18.10;47.70;;;;;;5007547;28;19914;-66
2022/03/13 09:00:54;;;;;;;;;;;18.20;47.70;;;;;;5008098;28;19988;-67
2022/03/13 09:03:19;;;;;;;;;;;18.10;47.70;;;;;;5006942;28;19920;-68
2022/03/13 09:05:45;;;;;;;;;;;18.20;47.70;;;;;;5010009;28;19924;-65
2022/03/13 09:08:11;;;;;;;;;;;18.10;47.50;;;;;;5008408;28;19914;-65
2022/03/13 09:10:36;;;;;;;;;;;18.10;47.70;;;;;;5008509;28;19913;-65
2022/03/13 09:13:01;;;;;;;;;;;18.10;47.70;;;;;;5009414;28;19918;-65
2022/03/13 09:15:27;;;;;;;;;;;18.10;47.70;;;;;;5017410;28;19924;-66
2022/03/13 09:17:55;;;;;;;;;;;18.10;48.00;;;;;;5009231;28;20515;-66
2022/03/13 09:20:21;;;;;;;;;;;18.00;48.30;;;;;;5008669;28;20373;-67
2022/03/13 09:22:47;;;;;;;;;;;18.00;48.60;;;;;;5009786;28;19989;-66
2022/03/13 09:25:13;;;;;;;;;;;18.00;48.60;;;;;;5007748;28;19937;-66
2022/03/13 09:27:38;;;;;;;;;;;18.00;48.80;;;;;;5006962;28;19921;-66
2022/03/13 09:30:04;;;;;;;;;;;18.00;48.90;;;;;;5010589;28;19913;-66
2022/03/13 09:32:29;;;;;;;;;;;18.00;49.00;;;;;;5010058;28;19972;-67
2022/03/13 09:34:55;;;;;;;;;;;18.00;49.20;;;;;;5009893;28;20404;-66
2022/03/13 09:37:21;;;;;;;;;;;17.90;49.40;;;;;;5009160;28;19914;-66
2022/03/13 09:39:46;;;;;;;;;;;18.00;49.30;;;;;;5009135;28;19914;-64
2022/03/13 09:42:11;;;;;;;;;;;18.20;49.10;;;;;;5011596;28;19918;-66
2022/03/13 09:44:37;;;;;;;;;;;18.30;48.80;;;;;;5005995;28;19925;-65
2022/03/13 09:47:02;;;;;;;;;;;18.30;48.50;;;;;;5009454;28;19920;-66
2022/03/13 09:49:28;;;;;;;;;;;18.30;48.60;;;;;;5006237;28;19995;-66
2022/03/13 09:51:54;;;;;;;;;;;18.40;48.30;;;;;;5010053;28;19918;-66
2022/03/13 09:54:19;;;;;;;;;;;18.40;48.40;;;;;;5006485;28;19913;-67
2022/03/13 09:56:44;;;;;;;;;;;18.30;48.60;;;;;;5008199;28;20274;-65
2022/03/13 09:59:10;;;;;;;;;;;18.30;48.80;;;;;;5005754;28;19914;-65
2022/03/13 10:01:36;;;;;;;;;;;18.40;48.70;;;;;;5008746;28;20324;-66
2022/03/13 10:04:02;;;;;;;;;;;18.40;48.90;;;;;;5008387;28;19918;-65
2022/03/13 10:06:28;;;;;;;;;;;18.40;48.90;;;;;;5012478;28;19928;-66
2022/03/13 10:08:54;;;;;;;;;;;18.70;48.70;;;;;;5006990;28;20325;-66
2022/03/13 10:11:32;;;;;;;;;;;18.80;48.40;;;;;;5005690;28;19967;-67
2022/03/13 10:14:05;;;;;;;;;;;18.80;48.40;;;;;;5005077;28;19917;-66
2022/03/13 10:16:37;;;;;;;;;;;18.90;48.30;;;;;;5008273;28;20001;-67
2022/03/13 10:19:18;;;;;;;;;;;19.00;48.30;;;;;;5006388;28;20552;-66
2022/03/13 10:22:02;;;;;;;;;;;19.10;48.20;;;;;;5003749;28;19921;-67
2022/03/13 10:24:28;;;;;;;;;;;19.10;48.20;;;;;;5004871;28;19919;-66
2022/03/13 10:27:09;;;;;;;;;;;19.20;48.20;;;;;;5006623;28;19921;-66
2022/03/13 10:29:34;;;;;;;;;;;19.30;48.20;;;;;;5005513;28;20605;-66
2022/03/13 10:32:00;;;;;;;;;;;19.30;48.10;;;;;;5005137;28;19920;-66
2022/03/13 10:34:26;;;;;;;;;;;19.30;48.20;;;;;;5006559;28;20427;-67
2022/03/13 10:36:52;;;;;;;;;;;19.40;48.10;;;;;;5007202;28;20453;-66
2022/03/13 10:39:17;;;;;;;;;;;19.40;48.00;;;;;;5003930;28;19918;-66
2022/03/13 10:41:44;;;;;;;;;;;19.50;48.00;;;;;;5004560;28;19917;-67
2022/03/13 10:44:13;;;;;;;;;;;19.50;47.90;;;;;;5004122;28;20261;-67
2022/03/13 10:46:40;;;;;;;;;;;19.60;48.00;;;;;;5005241;28;19924;-66
2022/03/13 10:49:09;;;;;;;;;;;19.70;48.00;;;;;;5002736;28;19921;-66
2022/03/13 10:51:35;;;;;;;;;;;19.60;48.00;;;;;;5006732;28;20000;-66
2022/03/13 10:54:00;;;;;;;;;;;19.60;48.00;;;;;;5005718;28;20613;-66
2022/03/13 10:56:27;;;;;;;;;;;19.70;47.90;;;;;;5003651;28;19920;-66
2022/03/13 10:58:52;;;;;;;;;;;19.60;47.90;;;;;;5005528;28;19924;-66
2022/03/13 11:01:18;;;;;;;;;;;19.60;47.90;;;;;;5004204;28;19929;-67
2022/03/13 11:03:47;;;;;;;;;;;19.60;47.90;;;;;;5004871;28;19917;-66
2022/03/13 11:06:13;;;;;;;;;;;19.70;47.90;;;;;;5004496;28;20527;-66
2022/03/13 11:08:40;;;;;;;;;;;19.70;47.80;;;;;;5003940;28;19971;-66
2022/03/13 11:11:06;;;;;;;;;;;19.60;47.80;;;;;;5004400;28;19913;-65
2022/03/13 11:13:32;;;;;;;;;;;19.60;47.70;;;;;;5003075;28;19918;-67
2022/03/13 11:15:57;;;;;;;;;;;19.60;47.80;;;;;;5002709;28;19921;-67
2022/03/13 11:18:28;;;;;;;;;;;19.50;47.70;;;;;;5003446;28;19975;-66
2022/03/13 11:20:53;;;;;;;;;;;19.60;47.70;;;;;;5003504;28;19914;-67
2022/03/13 11:23:19;;;;;;;;;;;19.50;47.70;;;;;;5001194;28;19920;-66
2022/03/13 11:25:46;;;;;;;;;;;19.50;47.60;;;;;;5001041;28;19921;-66
2022/03/13 11:28:11;;;;;;;;;;;19.50;47.60;;;;;;5008705;28;20002;-66
2022/03/13 11:30:37;;;;;;;;;;;19.50;47.50;;;;;;5001075;28;20444;-64
2022/03/13 11:33:03;;;;;;;;;;;19.50;47.50;;;;;;5003807;28;19913;-65
2022/03/13 11:35:30;;;;;;;;;;;19.50;47.50;;;;;;4999938;28;19914;-65
2022/03/13 11:38:04;;;;;;;;;;;19.40;47.50;;;;;;5004557;28;19917;-65
2022/03/13 11:40:30;;;;;;;;;;;19.30;47.70;;;;;;5004324;28;20567;-64
2022/03/13 11:43:04;;;;;;;;;;;19.30;47.40;;;;;;4974620;28;19914;-65
2022/03/13 11:45:30;;;;;;;;;;;19.30;47.40;;;;;;5002780;28;20558;-66
2022/03/13 11:48:04;;;;;;;;;;;19.20;47.30;;;;;;5005746;28;19951;-66
2022/03/13 11:50:54;;;;;;;;;;;19.20;47.00;;;;;;5003363;28;19929;-64
2022/03/13 11:53:23;;;;;;;;;;;19.20;46.80;;;;;;4996291;28;20467;-64
2022/03/13 11:56:02;;;;;;;;;;;19.10;46.70;;;;;;5002681;28;19914;-60
2022/03/13 11:58:42;;;;;;;;;;;19.10;46.50;;;;;;5010828;28;19936;-63
2022/03/13 12:01:21;;;;;;;;;;;19.10;46.30;;;;;;5002952;28;19913;-67
2022/03/13 12:04:05;;;;;;;;;;;19.10;46.10;;;;;;5001956;28;19921;-66
2022/03/13 12:06:39;;;;;;;;;;;19.10;45.90;;;;;;4994076;28;19917;-62
2022/03/13 12:09:07;;;;;;;;;;;19.00;45.70;;;;;;5016084;28;20436;-66
2022/03/13 12:11:39;;;;;;;;;;;19.00;45.70;;;;;;4999199;28;19913;-66
2022/03/13 12:14:08;;;;;;;;;;;19.10;45.60;;;;;;5019533;28;19913;-65
2022/03/13 12:16:34;;;;;;;;;;;19.10;45.50;;;;;;4998342;28;19914;-65
2022/03/13 12:19:00;;;;;;;;;;;19.10;45.70;;;;;;5020016;28;20561;-65
2022/03/13 12:21:25;;;;;;;;;;;19.10;45.50;;;;;;4941804;28;19924;-65
2022/03/13 12:23:52;;;;;;;;;;;19.10;45.80;;;;;;5005319;28;19921;-66
2022/03/13 12:26:22;;;;;;;;;;;19.10;45.90;;;;;;5006133;28;19933;-65
2022/03/13 12:28:48;;;;;;;;;;;19.10;45.90;;;;;;5006455;28;19913;-65
2022/03/13 12:31:14;;;;;;;;;;;19.10;45.70;;;;;;5007669;28;19914;-65
2022/03/13 12:33:46;;;;;;;;;;;19.10;45.70;;;;;;4995129;28;19924;-65
2022/03/13 12:36:11;;;;;;;;;;;19.10;45.60;;;;;;5006176;28;19917;-66
2022/03/13 12:38:38;;;;;;;;;;;19.10;45.60;;;;;;5010165;28;20551;-65
2022/03/13 12:41:05;;;;;;;;;;;19.10;45.40;;;;;;5007361;28;20024;-67
2022/03/13 12:43:50;;;;;;;;;;;19.10;45.50;;;;;;4981978;28;19913;-67
2022/03/13 12:46:19;;;;;;;;;;;19.10;45.20;;;;;;5004827;28;19917;-67
2022/03/13 12:49:01;;;;;;;;;;;19.10;45.20;;;;;;4994351;28;19992;-65
2022/03/13 12:51:38;;;;;;;;;;;19.10;45.10;;;;;;5002428;28;20435;-64
2022/03/13 12:54:10;;;;;;;;;;;19.10;45.30;;;;;;5004174;28;19914;-66
2022/03/13 12:56:40;;;;;;;;;;;19.10;45.10;;;;;;4996136;28;19913;-63
2022/03/13 12:59:05;;;;;;;;;;;19.10;45.20;;;;;;5019110;28;20658;-64
2022/03/13 13:01:31;;;;;;;;;;;19.10;45.20;;;;;;4993386;28;19921;-63
2022/03/13 13:03:57;;;;;;;;;;;19.10;45.20;;;;;;5024792;28;20312;-65
2022/03/13 13:06:34;;;;;;;;;;;19.10;45.00;;;;;;5005230;28;20731;-64
2022/03/13 13:08:59;;;;;;;;;;;19.00;45.00;;;;;;5002697;28;19957;-64
2022/03/13 13:11:29;;;;;;;;;;;19.10;45.20;;;;;;5002872;28;19968;-66
2022/03/13 13:13:58;;;;;;;;;;;19.10;45.70;;;;;;5006193;28;19913;-66
2022/03/13 13:16:26;;;;;;;;;;;19.00;45.60;;;;;;5004258;28;19921;-66
2022/03/13 13:18:51;;;;;;;;;;;19.00;45.50;;;;;;5006737;28;19929;-66
2022/03/13 13:21:17;;;;;;;;;;;19.00;45.60;;;;;;5004752;28;19936;-64
2022/03/13 13:23:42;;;;;;;;;;;19.00;45.70;;;;;;5008031;28;19921;-66
2022/03/13 13:26:09;;;;;;;;;;;19.00;45.60;;;;;;5004263;28;19929;-66
2022/03/13 13:28:35;;;;;;;;;;;19.00;45.70;;;;;;4992414;28;19920;-62
2022/03/13 13:31:00;;;;;;;;;;;19.00;45.70;;;;;;5005738;28;19919;-66
2022/03/13 13:33:29;;;;;;;;;;;19.00;46.00;;;;;;5008373;28;19913;-64
2022/03/13 13:35:54;;;;;;;;;;;19.00;46.40;;;;;;5004731;28;19921;-66
2022/03/13 13:38:26;;;;;;;;;;;18.90;46.70;;;;;;5007659;28;19913;-66
2022/03/13 13:40:51;;;;;;;;;;;18.90;47.00;;;;;;5012198;28;20336;-66
2022/03/13 13:43:24;;;;;;;;;;;19.00;46.90;;;;;;5006990;28;19913;-66
2022/03/13 13:45:50;;;;;;;;;;;18.90;46.90;;;;;;5003318;28;20340;-66
2022/03/13 13:48:26;;;;;;;;;;;19.00;47.10;;;;;;5001100;28;19940;-66
2022/03/13 13:51:13;;;;;;;;;;;19.00;46.80;;;;;;5009793;28;19922;-64
2022/03/13 13:53:59;;;;;;;;;;;19.00;46.90;;;;;;4993798;28;19944;-64
2022/03/13 13:56:25;;;;;;;;;;;19.10;47.00;;;;;;5006321;28;19913;-63
2022/03/13 13:58:50;;;;;;;;;;;19.10;46.90;;;;;;5005180;28;20269;-66
2022/03/13 14:01:19;;;;;;;;;;;19.20;46.90;;;;;;5003996;28;19914;-66
2022/03/13 14:03:45;;;;;;;;;;;19.20;46.90;;;;;;5004409;28;19952;-66
2022/03/13 14:06:10;;;;;;;;;;;19.30;46.90;;;;;;5004924;28;19928;-66
2022/03/13 14:08:36;;;;;;;;;;;19.40;47.00;;;;;;5005534;28;20423;-66
2022/03/13 14:11:01;;;;;;;;;;;19.60;46.90;;;;;;5005854;28;19918;-66
2022/03/13 14:13:29;;;;;;;;;;;19.60;46.80;;;;;;5006779;28;19913;-66